Time;durP1;ratioP1;P1;durP2;ratioP2;P2;SDS_P1;SDS_P2;PMS_P1;PMS_P2;Temp;Humidity;BMP_temperature;BMP_pressure;BME280_temperature;BME280_humidity;BME280_pressure;Samples;Min_cycle;Max_cycle;Signal;HPM_P1;HPM_P2
2021/08/05 00:01:53;;;;;;;6.88;3.35;;;19.10;70.80;;;;;;5011914;28;20042;-86
2021/08/05 00:04:21;;;;;;;7.07;3.47;;;19.50;71.20;;;;;;5012112;28;20041;-86
2021/08/05 00:06:46;;;;;;;7.22;3.45;;;18.90;70.90;;;;;;4995755;28;20037;-86
2021/08/05 00:09:12;;;;;;;9.43;3.72;;;18.20;70.20;;;;;;5013468;28;20026;-86
2021/08/05 00:11:39;;;;;;;7.93;3.40;;;19.30;71.00;;;;;;5011995;28;20501;-85
2021/08/05 00:14:04;;;;;;;7.88;3.30;;;18.80;71.60;;;;;;5011900;28;20076;-85
2021/08/05 00:16:30;;;;;;;7.20;3.42;;;19.30;71.60;;;;;;5012074;28;20033;-86
2021/08/05 00:18:56;;;;;;;7.40;3.25;;;18.80;71.70;;;;;;5012184;28;20022;-85
2021/08/05 00:21:21;;;;;;;7.03;3.05;;;18.80;71.40;;;;;;5012231;28;20026;-85
2021/08/05 00:23:47;;;;;;;7.55;3.17;;;18.90;71.30;;;;;;5012064;28;20030;-86
2021/08/05 00:26:16;;;;;;;7.38;3.60;;;19.00;71.40;;;;;;5013947;28;20128;-86
2021/08/05 00:28:42;;;;;;;8.57;3.80;;;19.00;71.20;;;;;;5015529;28;20033;-86
2021/08/05 00:31:08;;;;;;;8.10;3.47;;;18.90;71.70;;;;;;5015174;28;20489;-85
2021/08/05 00:33:37;;;;;;;8.45;3.63;;;18.80;71.40;;;;;;5015356;28;20037;-86
2021/08/05 00:36:05;;;;;;;8.63;3.75;;;18.40;71.20;;;;;;5015081;28;20030;-86
2021/08/05 00:38:31;;;;;;;8.20;3.58;;;18.80;71.90;;;;;;5015487;28;20079;-86
2021/08/05 00:40:57;;;;;;;7.25;3.55;;;18.80;71.70;;;;;;5015280;28;20516;-87
2021/08/05 00:43:25;;;;;;;7.28;3.33;;;18.80;71.90;;;;;;5015590;28;20053;-87
2021/08/05 00:45:50;;;;;;;8.05;3.72;;;18.80;72.20;;;;;;5015448;28;20099;-88
2021/08/05 00:48:16;;;;;;;8.45;3.42;;;18.30;71.70;;;;;;5015397;28;20478;-88
2021/08/05 00:50:43;;;;;;;7.38;3.70;;;19.00;72.70;;;;;;5015268;28;20390;-88
2021/08/05 00:53:09;;;;;;;8.05;3.65;;;19.60;73.10;;;;;;5015214;28;20037;-87
2021/08/05 00:55:35;;;;;;;7.85;3.53;;;19.00;72.30;;;;;;5015225;28;20080;-87
2021/08/05 00:58:01;;;;;;;8.27;3.47;;;18.70;72.00;;;;;;5014600;28;20025;-86
2021/08/05 01:00:28;;;;;;;7.32;3.55;;;18.70;72.20;;;;;;4998320;28;20117;-87
2021/08/05 01:03:06;;;;;;;7.10;3.53;;;19.10;72.30;;;;;;5014942;28;20033;-87
2021/08/05 01:05:36;;;;;;;7.93;3.47;;;18.60;72.10;;;;;;5014915;28;20026;-87
2021/08/05 01:08:09;;;;;;;7.32;3.60;;;18.60;72.40;;;;;;5015002;28;20036;-87
2021/08/05 01:10:47;;;;;;;8.30;3.33;;;18.30;72.30;;;;;;5015232;28;20022;-88
2021/08/05 01:13:19;;;;;;;6.38;3.20;;;18.50;72.40;;;;;;5014528;28;20095;-87
2021/08/05 01:15:48;;;;;;;7.60;2.95;;;18.50;72.40;;;;;;5016469;28;20029;-87
2021/08/05 01:18:29;;;;;;;7.50;3.33;;;18.50;73.10;;;;;;5004729;28;20034;-86
2021/08/05 01:20:56;;;;;;;7.80;3.28;;;19.30;73.40;;;;;;5023108;28;20108;-86
2021/08/05 01:23:32;;;;;;;7.00;3.33;;;19.00;73.30;;;;;;5022068;28;20347;-86
2021/08/05 01:26:21;;;;;;;6.60;3.13;;;18.50;72.80;;;;;;5015542;28;20026;-86
2021/08/05 01:28:48;;;;;;;7.55;3.60;;;18.50;72.90;;;;;;5014231;28;20121;-86
2021/08/05 01:31:21;;;;;;;7.85;3.50;;;18.50;73.00;;;;;;5014346;28;20075;-88
2021/08/05 01:33:48;;;;;;;8.95;3.75;;;18.50;73.10;;;;;;5014122;28;20034;-88
2021/08/05 01:36:15;;;;;;;7.85;3.40;;;18.50;73.40;;;;;;5014459;28;20077;-87
2021/08/05 01:38:42;;;;;;;8.25;3.72;;;18.60;73.50;;;;;;5014290;28;20107;-88
2021/08/05 01:41:09;;;;;;;7.57;3.50;;;18.50;73.50;;;;;;5014134;28;20161;-87
2021/08/05 01:43:37;;;;;;;8.88;4.07;;;18.30;73.20;;;;;;4997712;28;20065;-87
2021/08/05 01:46:04;;;;;;;7.20;3.58;;;18.40;73.40;;;;;;5015429;28;20022;-88
2021/08/05 01:48:32;;;;;;;8.43;3.60;;;19.30;74.00;;;;;;4998447;28;20367;-87
2021/08/05 01:50:59;;;;;;;8.73;4.05;;;19.00;73.90;;;;;;5015196;28;20029;-87
2021/08/05 01:53:26;;;;;;;8.57;4.05;;;18.30;73.70;;;;;;5015200;28;20481;-87
2021/08/05 01:55:52;;;;;;;8.45;3.67;;;18.40;74.10;;;;;;5014538;28;20030;-87
2021/08/05 01:58:18;;;;;;;8.95;3.72;;;18.50;74.10;;;;;;5014453;28;20512;-87
2021/08/05 02:00:44;;;;;;;8.82;4.00;;;18.20;74.20;;;;;;5013485;28;20402;-86
2021/08/05 02:03:12;;;;;;;9.23;4.15;;;18.30;74.20;;;;;;5013993;28;20537;-85
2021/08/05 02:05:51;;;;;;;8.68;4.00;;;18.20;74.00;;;;;;5015224;28;20493;-87
2021/08/05 02:08:22;;;;;;;9.15;4.90;;;18.50;74.30;;;;;;5013614;28;20076;-86
2021/08/05 02:10:50;;;;;;;10.63;4.65;;;18.40;74.20;;;;;;5013348;28;20021;-86
2021/08/05 02:13:34;;;;;;;10.70;4.68;;;18.40;74.30;;;;;;5013232;28;20482;-86
2021/08/05 02:16:02;;;;;;;8.20;4.38;;;18.40;74.40;;;;;;5013365;28;20084;-86
2021/08/05 02:18:31;;;;;;;9.13;4.43;;;18.50;74.40;;;;;;5013595;28;20047;-86
2021/08/05 02:20:58;;;;;;;10.23;5.00;;;19.50;74.90;;;;;;5013506;28;20018;-86
2021/08/05 02:23:25;;;;;;;9.23;4.10;;;19.40;74.90;;;;;;5013149;28;20056;-85
2021/08/05 02:25:52;;;;;;;10.18;4.90;;;19.10;74.80;;;;;;5014528;28;20053;-85
2021/08/05 02:28:20;;;;;;;8.00;3.83;;;18.40;74.50;;;;;;5012973;28;20061;-86
2021/08/05 02:30:46;;;;;;;9.40;4.10;;;18.20;74.20;;;;;;5013031;28;20028;-87
2021/08/05 02:33:13;;;;;;;7.53;3.85;;;18.40;74.10;;;;;;5013253;28;20040;-87
2021/08/05 02:35:43;;;;;;;8.00;3.63;;;18.70;74.50;;;;;;5012854;28;20497;-85
2021/08/05 02:38:09;;;;;;;8.55;3.53;;;18.30;74.40;;;;;;5012875;28;20026;-85
2021/08/05 02:40:36;;;;;;;8.98;4.00;;;18.00;74.40;;;;;;5013288;28;20018;-86
2021/08/05 02:43:06;;;;;;;8.32;4.13;;;19.30;75.20;;;;;;5014297;28;20032;-86
2021/08/05 02:45:34;;;;;;;8.13;3.70;;;18.80;75.10;;;;;;5013160;28;20064;-86
2021/08/05 02:48:04;;;;;;;7.47;3.42;;;18.20;75.10;;;;;;5012662;28;20026;-86
2021/08/05 02:50:35;;;;;;;7.60;3.50;;;17.70;74.40;;;;;;5012939;28;20037;-86
2021/08/05 02:53:02;;;;;;;6.80;3.50;;;18.80;75.20;;;;;;5012876;28;20068;-86
2021/08/05 02:55:28;;;;;;;6.97;3.53;;;17.90;75.10;;;;;;5012949;28;20018;-86
2021/08/05 02:57:56;;;;;;;7.53;3.53;;;18.40;75.80;;;;;;5012866;28;20034;-86
2021/08/05 03:00:22;;;;;;;8.05;3.45;;;19.10;75.60;;;;;;5012697;28;20036;-86
2021/08/05 03:02:48;;;;;;;7.15;3.55;;;19.00;75.90;;;;;;5012481;28;20112;-86
2021/08/05 03:05:16;;;;;;;7.88;3.60;;;19.10;75.70;;;;;;5012757;28;20474;-86
2021/08/05 03:07:43;;;;;;;6.75;3.05;;;18.60;75.30;;;;;;5012885;28;20061;-86
2021/08/05 03:10:12;;;;;;;6.40;3.17;;;19.30;75.70;;;;;;5012592;28;20025;-87
2021/08/05 03:12:38;;;;;;;6.93;3.13;;;18.10;75.00;;;;;;5012658;28;20501;-86
2021/08/05 03:15:04;;;;;;;6.97;3.17;;;18.40;75.90;;;;;;5012440;28;20117;-86
2021/08/05 03:17:30;;;;;;;7.75;3.33;;;18.00;75.40;;;;;;5012389;28;20034;-86
2021/08/05 03:19:56;;;;;;;7.40;3.13;;;18.40;78.70;;;;;;5012754;28;20037;-86
2021/08/05 03:22:21;;;;;;;7.13;3.20;;;18.80;77.10;;;;;;5012920;28;20062;-87
2021/08/05 03:24:47;;;;;;;8.40;3.20;;;19.00;77.10;;;;;;5012387;28;20018;-87
2021/08/05 03:27:13;;;;;;;7.53;3.35;;;18.00;76.80;;;;;;5012402;28;20080;-87
2021/08/05 03:29:38;;;;;;;7.57;3.70;;;19.30;76.90;;;;;;5012716;28;20117;-86
2021/08/05 03:32:07;;;;;;;7.85;3.72;;;18.10;77.00;;;;;;5012538;28;20025;-85
2021/08/05 03:34:33;;;;;;;8.77;3.97;;;19.20;77.20;;;;;;5011859;28;20466;-85
2021/08/05 03:36:58;;;;;;;7.90;3.90;;;18.50;77.50;;;;;;5011864;28;20026;-84
2021/08/05 03:39:25;;;;;;;9.40;3.60;;;18.50;77.10;;;;;;5012017;28;20475;-85
2021/08/05 03:41:51;;;;;;;9.52;4.93;;;18.10;77.50;;;;;;5012336;28;20037;-84
2021/08/05 03:44:17;;;;;;;10.55;5.40;;;18.00;77.00;;;;;;5012344;28;20034;-84
2021/08/05 03:46:46;;;;;;;7.88;3.83;;;18.60;77.20;;;;;;5012385;28;20053;-84
2021/08/05 03:49:14;;;;;;;6.72;2.85;;;17.90;77.60;;;;;;5012076;28;20076;-83
2021/08/05 03:51:39;;;;;;;6.43;2.90;;;18.00;77.70;;;;;;5012205;28;20053;-84
2021/08/05 03:54:07;;;;;;;7.47;3.35;;;17.90;76.90;;;;;;5011985;28;20482;-83
2021/08/05 03:56:36;;;;;;;6.05;3.05;;;18.10;76.90;;;;;;5012474;28;20022;-84
2021/08/05 03:59:02;;;;;;;7.55;3.22;;;18.50;76.00;;;;;;5012199;28;20101;-84
2021/08/05 04:01:30;;;;;;;7.30;3.55;;;19.50;77.50;;;;;;5014555;28;20091;-84
2021/08/05 04:04:00;;;;;;;7.10;3.22;;;17.90;77.40;;;;;;4999225;28;20125;-84
2021/08/05 04:06:32;;;;;;;6.50;3.20;;;18.00;77.10;;;;;;5000210;28;20398;-84
2021/08/05 04:09:01;;;;;;;5.30;2.53;;;18.10;76.60;;;;;;5000435;28;20041;-83
2021/08/05 04:11:27;;;;;;;7.70;3.20;;;17.80;75.90;;;;;;4999957;28;20025;-83
2021/08/05 04:13:53;;;;;;;10.18;5.53;;;17.90;78.50;;;;;;5015611;28;20049;-84
2021/08/05 04:16:18;;;;;;;9.70;5.28;;;18.40;79.10;;;;;;4998966;28;20026;-83
2021/08/05 04:18:44;;;;;;;7.45;3.28;;;18.60;78.40;;;;;;5015770;28;20076;-86
2021/08/05 04:21:09;;;;;;;7.57;3.60;;;19.30;78.40;;;;;;4999648;28;20030;-87
2021/08/05 04:23:35;;;;;;;7.63;3.60;;;18.80;77.50;;;;;;5015613;28;20034;-87
2021/08/05 04:26:01;;;;;;;7.50;3.50;;;17.90;77.50;;;;;;5015723;28;20025;-86
2021/08/05 04:28:26;;;;;;;7.57;3.58;;;17.90;77.50;;;;;;4999163;28;20053;-86
2021/08/05 04:30:53;;;;;;;9.57;5.40;;;19.20;77.90;;;;;;5015651;28;20108;-85
2021/08/05 04:33:23;;;;;;;17.40;11.02;;;17.90;77.10;;;;;;5016933;28;20065;-87
2021/08/05 04:35:49;;;;;;;9.50;5.15;;;17.90;77.40;;;;;;4998999;28;20018;-87
2021/08/05 04:38:15;;;;;;;8.93;3.90;;;19.10;78.30;;;;;;4999522;28;20049;-87
2021/08/05 04:40:42;;;;;;;9.13;3.85;;;19.10;77.50;;;;;;5015301;28;20053;-86
2021/08/05 04:43:08;;;;;;;10.27;6.05;;;18.10;77.60;;;;;;5016343;28;20450;-86
2021/08/05 04:45:33;;;;;;;11.80;6.20;;;19.00;78.00;;;;;;5014814;28;20084;-86
2021/08/05 04:48:02;;;;;;;7.45;3.58;;;18.60;77.50;;;;;;5015310;28;20471;-86
2021/08/05 04:50:31;;;;;;;9.30;3.70;;;19.20;77.20;;;;;;5014992;28;20026;-86
2021/08/05 04:52:59;;;;;;;7.65;3.70;;;19.20;77.20;;;;;;5015290;28;20042;-85
2021/08/05 04:55:25;;;;;;;7.60;3.60;;;18.30;76.70;;;;;;5014758;28;20441;-87
2021/08/05 04:57:53;;;;;;;7.30;3.50;;;19.10;77.20;;;;;;5014812;28;20069;-88
2021/08/05 05:00:24;;;;;;;7.53;3.55;;;18.90;77.10;;;;;;5015240;28;20057;-87
2021/08/05 05:02:49;;;;;;;6.63;3.17;;;18.90;77.00;;;;;;5031155;28;20033;-87
2021/08/05 05:05:15;;;;;;;6.80;3.30;;;18.30;78.80;;;;;;5035353;28;20022;-83
2021/08/05 05:07:41;;;;;;;7.07;3.10;;;18.20;77.00;;;;;;5034457;28;20022;-83
2021/08/05 05:10:07;;;;;;;7.55;3.50;;;18.50;78.10;;;;;;5014741;28;20037;-83
2021/08/05 05:12:34;;;;;;;7.15;3.58;;;18.20;76.60;;;;;;5014163;28;20394;-83
2021/08/05 05:15:00;;;;;;;9.13;3.83;;;19.60;77.50;;;;;;5015324;28;20026;-82
2021/08/05 05:17:25;;;;;;;7.78;3.63;;;19.30;78.80;;;;;;5002049;28;20030;-82
2021/08/05 05:19:51;;;;;;;7.63;3.30;;;18.00;76.50;;;;;;5015226;28;20057;-89
2021/08/05 05:22:16;;;;;;;7.80;3.40;;;18.50;76.80;;;;;;4999025;28;20477;-93
2021/08/05 05:24:42;;;;;;;8.35;3.78;;;18.40;77.40;;;;;;5021762;28;20033;-91
2021/08/05 05:27:08;;;;;;;7.57;3.67;;;18.40;78.10;;;;;;5009281;28;20036;-93
2021/08/05 05:29:36;;;;;;;8.45;3.92;;;18.60;77.70;;;;;;5015208;28;20026;-93
2021/08/05 05:32:03;;;;;;;9.63;3.97;;;19.50;79.70;;;;;;5030595;28;20041;-95
2021/08/05 05:34:28;;;;;;;8.50;4.07;;;19.20;77.20;;;;;;5022886;28;20030;-94
2021/08/05 05:36:54;;;;;;;9.13;4.15;;;18.90;78.50;;;;;;5023153;28;20025;-93
2021/08/05 05:39:22;;;;;;;8.05;3.65;;;19.30;78.70;;;;;;5026692;28;20026;-93
2021/08/05 05:41:48;;;;;;;7.97;3.45;;;18.80;78.50;;;;;;5034887;28;20025;-92
2021/08/05 05:44:14;;;;;;;8.15;3.75;;;19.30;79.20;;;;;;5023300;28;20390;-89
2021/08/05 05:46:39;;;;;;;7.00;3.40;;;19.70;76.60;;;;;;5015452;28;20100;-83
2021/08/05 05:49:05;;;;;;;8.38;4.00;;;19.90;77.20;;;;;;5015108;28;20045;-87
2021/08/05 05:51:30;;;;;;;10.23;4.00;;;18.90;75.90;;;;;;5014112;28;20469;-87
2021/08/05 05:53:56;;;;;;;11.05;4.43;;;18.90;76.80;;;;;;5015098;28;20030;-88
2021/08/05 05:56:23;;;;;;;7.63;3.83;;;20.10;77.00;;;;;;5014414;28;20382;-93
2021/08/05 05:58:48;;;;;;;7.40;3.90;;;19.90;76.80;;;;;;4998200;28;20442;-85
2021/08/05 06:01:14;;;;;;;10.23;4.13;;;20.10;76.90;;;;;;5014315;28;20038;-88
2021/08/05 06:03:39;;;;;;;8.98;3.92;;;19.80;76.50;;;;;;4998992;28;20552;-88
2021/08/05 06:06:05;;;;;;;7.85;3.95;;;19.90;76.20;;;;;;5019023;28;20042;-88
2021/08/05 06:08:31;;;;;;;8.25;3.80;;;19.80;76.10;;;;;;5003697;28;20030;-87
2021/08/05 06:10:57;;;;;;;8.23;4.07;;;20.40;76.10;;;;;;5021634;28;20382;-88
2021/08/05 06:13:22;;;;;;;8.07;3.97;;;19.80;75.20;;;;;;5014718;28;20035;-87
2021/08/05 06:15:48;;;;;;;8.43;3.90;;;19.70;74.90;;;;;;5015412;28;20030;-88
2021/08/05 06:18:13;;;;;;;8.18;3.70;;;19.90;74.80;;;;;;5014769;28;20036;-85
2021/08/05 06:20:39;;;;;;;9.43;4.35;;;21.10;75.30;;;;;;5014525;28;20494;-85
2021/08/05 06:23:08;;;;;;;8.05;3.83;;;20.20;75.10;;;;;;5013759;28;20030;-85
2021/08/05 06:25:35;;;;;;;8.80;4.30;;;20.60;75.30;;;;;;5013030;28;20116;-85
2021/08/05 06:28:01;;;;;;;9.25;4.07;;;20.80;74.60;;;;;;5014334;28;20018;-84
2021/08/05 06:30:27;;;;;;;10.63;4.40;;;20.50;74.10;;;;;;5014346;28;20038;-84
2021/08/05 06:32:52;;;;;;;8.18;4.05;;;21.20;74.50;;;;;;5014078;28;20038;-84
2021/08/05 06:35:19;;;;;;;8.18;3.78;;;20.90;74.20;;;;;;5013741;28;20026;-88
2021/08/05 06:37:45;;;;;;;9.05;4.53;;;21.10;74.00;;;;;;5015023;28;20116;-90
2021/08/05 06:40:11;;;;;;;8.60;4.45;;;21.50;74.10;;;;;;4998352;28;20038;-90
2021/08/05 06:42:37;;;;;;;8.25;4.32;;;20.80;73.90;;;;;;5015867;28;20486;-92
2021/08/05 06:45:04;;;;;;;8.10;4.13;;;20.40;74.10;;;;;;5018277;28;20117;-91
2021/08/05 06:47:30;;;;;;;8.80;4.50;;;20.80;73.40;;;;;;5015014;28;20041;-91
2021/08/05 06:49:56;;;;;;;7.85;4.20;;;21.30;74.00;;;;;;5014826;28;20026;-87
2021/08/05 06:52:22;;;;;;;9.00;4.20;;;21.30;73.80;;;;;;5014296;28;20037;-87
2021/08/05 06:54:48;;;;;;;9.32;4.35;;;22.00;74.30;;;;;;5013884;28;20390;-88
2021/08/05 06:57:14;;;;;;;9.55;4.68;;;20.90;74.60;;;;;;5014788;28;20423;-90
2021/08/05 06:59:40;;;;;;;9.38;4.35;;;22.00;74.40;;;;;;4998219;28;20036;-90
2021/08/05 07:02:06;;;;;;;10.00;4.40;;;21.60;74.20;;;;;;5015418;28;20050;-91
2021/08/05 07:04:31;;;;;;;8.40;4.13;;;21.90;74.00;;;;;;5016248;28;20084;-95
2021/08/05 07:06:58;;;;;;;9.02;4.60;;;21.50;75.50;;;;;;5022863;28;20026;-94
2021/08/05 07:09:24;;;;;;;11.07;4.45;;;21.70;74.10;;;;;;5020559;28;20030;-94
2021/08/05 07:11:50;;;;;;;10.02;4.20;;;21.80;73.10;;;;;;5014814;28;20034;-89
2021/08/05 07:14:16;;;;;;;7.90;4.25;;;22.30;73.10;;;;;;5014280;28;20030;-89
2021/08/05 07:16:41;;;;;;;7.50;4.03;;;21.90;72.60;;;;;;5013235;28;20537;-91
2021/08/05 07:19:07;;;;;;;7.93;4.30;;;23.00;72.90;;;;;;5012912;28;20033;-89
2021/08/05 07:21:32;;;;;;;8.70;3.97;;;22.40;72.70;;;;;;5012724;28;20067;-89
2021/08/05 07:23:58;;;;;;;7.88;3.55;;;22.40;72.40;;;;;;4996529;28;20037;-90
2021/08/05 07:26:25;;;;;;;8.07;3.83;;;22.70;72.40;;;;;;5013776;28;20081;-91
2021/08/05 07:28:50;;;;;;;10.32;4.57;;;22.10;71.80;;;;;;4996454;28;20030;-86
2021/08/05 07:31:16;;;;;;;7.80;3.83;;;22.30;71.60;;;;;;5013870;28;20026;-91
2021/08/05 07:33:43;;;;;;;8.38;3.72;;;22.40;71.90;;;;;;5012941;28;20137;-89
2021/08/05 07:36:09;;;;;;;7.90;3.67;;;22.20;71.10;;;;;;5017335;28;20480;-90
2021/08/05 07:38:35;;;;;;;8.90;4.30;;;22.60;71.00;;;;;;5002027;28;20029;-90
2021/08/05 07:41:00;;;;;;;7.82;3.72;;;22.10;70.50;;;;;;5018826;28;20466;-89
2021/08/05 07:43:26;;;;;;;7.93;3.72;;;22.80;71.10;;;;;;5017840;28;20418;-90
2021/08/05 07:45:52;;;;;;;7.13;3.47;;;23.00;70.50;;;;;;5002218;28;20026;-90
2021/08/05 07:48:17;;;;;;;7.07;3.70;;;23.10;70.60;;;;;;5017424;28;20018;-91
2021/08/05 07:50:43;;;;;;;8.38;3.88;;;22.40;70.80;;;;;;5017124;28;20037;-92
2021/08/05 07:53:08;;;;;;;10.13;4.22;;;23.00;71.00;;;;;;5000602;28;20129;-93
2021/08/05 07:55:34;;;;;;;8.05;4.05;;;22.80;71.40;;;;;;5001168;28;20049;-93
2021/08/05 07:58:01;;;;;;;7.65;3.83;;;23.30;70.50;;;;;;5018520;28;20025;-92
2021/08/05 08:00:26;;;;;;;7.97;3.40;;;22.60;70.90;;;;;;5017062;28;20038;-92
2021/08/05 08:02:52;;;;;;;7.18;3.35;;;22.70;70.90;;;;;;5017442;28;20075;-95
2021/08/05 08:05:18;;;;;;;7.28;3.53;;;22.80;70.20;;;;;;5001338;28;20385;-95
2021/08/05 08:07:44;;;;;;;9.30;3.42;;;23.00;70.10;;;;;;5001448;28;20498;-94
2021/08/05 08:10:11;;;;;;;8.35;3.35;;;23.30;69.30;;;;;;4998360;28;20455;-93
2021/08/05 08:12:38;;;;;;;7.70;3.47;;;23.40;69.10;;;;;;4999849;28;20039;-91
2021/08/05 08:15:04;;;;;;;7.70;3.65;;;23.90;69.40;;;;;;5014734;28;20046;-94
2021/08/05 08:17:30;;;;;;;6.38;3.20;;;23.40;68.40;;;;;;5017507;28;20032;-94
2021/08/05 08:19:55;;;;;;;9.38;3.38;;;23.90;70.00;;;;;;5017899;28;20030;-94
2021/08/05 08:22:21;;;;;;;7.45;3.17;;;24.00;68.80;;;;;;5016906;28;20022;-95
2021/08/05 08:24:47;;;;;;;7.63;3.33;;;24.30;68.90;;;;;;5000408;28;20478;-95
2021/08/05 08:27:13;;;;;;;6.25;2.92;;;24.40;68.60;;;;;;5000349;28;20030;-92
2021/08/05 08:29:39;;;;;;;6.07;3.00;;;24.30;69.00;;;;;;5015901;28;20386;-89
2021/08/05 08:32:05;;;;;;;7.10;3.30;;;24.70;69.20;;;;;;4999364;28;20128;-89
2021/08/05 08:34:31;;;;;;;7.63;3.63;;;24.20;78.50;;;;;;4999641;28;20025;-90
2021/08/05 08:36:56;;;;;;;7.25;3.40;;;24.70;86.70;;;;;;4999454;28;20068;-89
2021/08/05 08:39:23;;;;;;;7.40;3.40;;;25.10;85.10;;;;;;5016052;28;20026;-90
2021/08/05 08:41:50;;;;;;;8.55;3.55;;;25.30;70.10;;;;;;5015343;28;20033;-88
2021/08/05 08:44:15;;;;;;;7.55;3.80;;;25.70;67.70;;;;;;5016463;28;20034;-89
2021/08/05 08:46:42;;;;;;;8.35;3.40;;;26.00;67.10;;;;;;5015474;28;20048;-87
2021/08/05 08:49:09;;;;;;;6.55;3.15;;;26.10;67.80;;;;;;5016834;28;20034;-91
2021/08/05 08:51:35;;;;;;;7.88;3.72;;;27.30;67.40;;;;;;5015570;28;20032;-92
2021/08/05 08:54:08;;;;;;;5.95;3.17;;;27.30;66.10;;;;;;5016852;28;20044;-89
2021/08/05 08:56:36;;;;;;;6.97;3.50;;;27.20;64.70;;;;;;5016434;28;20026;-89
2021/08/05 08:59:01;;;;;;;8.60;3.60;;;26.70;63.20;;;;;;5015050;28;20030;-88
2021/08/05 09:01:29;;;;;;;8.70;3.60;;;26.40;64.60;;;;;;5015112;28;20142;-88
2021/08/05 09:03:54;;;;;;;7.07;3.15;;;26.40;63.40;;;;;;4998607;28;20040;-88
2021/08/05 09:06:20;;;;;;;8.85;4.03;;;26.20;63.80;;;;;;5016338;28;20026;-88
2021/08/05 09:08:46;;;;;;;7.40;3.55;;;27.00;64.10;;;;;;5015999;28;20034;-89
2021/08/05 09:11:12;;;;;;;7.47;3.67;;;27.00;64.60;;;;;;5015177;28;20028;-89
2021/08/05 09:13:38;;;;;;;8.13;4.00;;;27.40;63.80;;;;;;5016217;28;20038;-90
2021/08/05 09:16:29;;;;;;;6.97;3.67;;;26.80;63.00;;;;;;5015969;28;20025;-90
2021/08/05 09:19:06;;;;;;;6.85;3.55;;;27.10;62.50;;;;;;5015550;28;20026;-92
2021/08/05 09:21:32;;;;;;;6.53;3.20;;;27.70;62.40;;;;;;5015481;28;20026;-91
2021/08/05 09:24:07;;;;;;;6.68;3.58;;;27.80;63.20;;;;;;5015691;28;20497;-90
2021/08/05 09:26:44;;;;;;;8.75;4.03;;;27.70;60.00;;;;;;5015090;28;20099;-90
2021/08/05 09:29:17;;;;;;;7.55;3.40;;;27.90;60.30;;;;;;5016702;28;20054;-90
2021/08/05 09:31:57;;;;;;;5.78;2.88;;;27.80;61.70;;;;;;5015208;28;20025;-90
2021/08/05 09:34:32;;;;;;;7.57;3.30;;;28.10;60.70;;;;;;5016515;28;20029;-93
2021/08/05 09:37:09;;;;;;;5.88;2.95;;;28.20;58.50;;;;;;5015981;28;20060;-93
2021/08/05 09:39:40;;;;;;;5.43;2.75;;;28.60;58.80;;;;;;5015313;28;20030;-95
2021/08/05 09:42:07;;;;;;;7.15;3.00;;;28.30;58.40;;;;;;5014360;28;20084;-89
2021/08/05 09:44:38;;;;;;;5.45;2.78;;;28.90;59.40;;;;;;4997952;28;20030;-88
2021/08/05 09:47:14;;;;;;;6.00;2.90;;;28.00;57.80;;;;;;5015031;28;20026;-89
2021/08/05 09:49:52;;;;;;;7.45;3.15;;;28.70;58.90;;;;;;5014409;28;20029;-90
2021/08/05 09:52:32;;;;;;;7.35;3.30;;;28.50;57.50;;;;;;5014400;28;20033;-92
2021/08/05 09:54:59;;;;;;;7.38;3.03;;;28.60;57.60;;;;;;5014423;28;20467;-89
2021/08/05 09:57:30;;;;;;;6.88;3.15;;;29.10;57.90;;;;;;5015227;28;20495;-91
2021/08/05 09:59:57;;;;;;;8.15;3.13;;;29.60;56.90;;;;;;4998215;28;20034;-92
2021/08/05 10:02:37;;;;;;;7.25;3.20;;;30.10;56.70;;;;;;5014992;28;20068;-84
2021/08/05 10:05:10;;;;;;;5.53;2.63;;;29.80;56.00;;;;;;5014795;28;20025;-82
2021/08/05 10:07:45;;;;;;;6.85;3.28;;;29.90;55.20;;;;;;5014525;28;20501;-84
2021/08/05 10:10:11;;;;;;;6.05;2.80;;;29.90;54.40;;;;;;5014393;28;20040;-83
2021/08/05 10:12:38;;;;;;;5.45;2.65;;;30.30;52.50;;;;;;5014308;28;20516;-83
2021/08/05 10:15:14;;;;;;;5.85;2.67;;;29.30;51.90;;;;;;5014953;28;20022;-84
2021/08/05 10:17:41;;;;;;;5.60;2.80;;;28.90;52.80;;;;;;5014819;28;20029;-84
2021/08/05 10:20:10;;;;;;;5.88;2.55;;;28.70;51.80;;;;;;5015846;28;20045;-84
2021/08/05 10:22:36;;;;;;;6.53;2.63;;;28.40;51.50;;;;;;5018691;28;20022;-81
2021/08/05 10:25:04;;;;;;;4.43;2.50;;;28.20;51.50;;;;;;5026031;28;20036;-92
2021/08/05 10:27:31;;;;;;;5.93;2.67;;;28.00;51.50;;;;;;5015686;28;20033;-92
2021/08/05 10:29:59;;;;;;;5.00;2.55;;;27.80;51.70;;;;;;4998617;28;20058;-87
2021/08/05 10:32:25;;;;;;;4.80;2.53;;;27.70;52.70;;;;;;5013900;28;20040;-89
2021/08/05 10:34:52;;;;;;;6.63;2.78;;;27.80;54.70;;;;;;5014443;28;20071;-89
2021/08/05 10:37:19;;;;;;;4.43;2.50;;;27.80;53.80;;;;;;4997369;28;20121;-87
2021/08/05 10:39:46;;;;;;;4.22;2.47;;;27.70;53.70;;;;;;5014496;28;20033;-86
2021/08/05 10:42:15;;;;;;;5.28;2.60;;;27.90;53.30;;;;;;5014002;28;20410;-86
2021/08/05 10:44:41;;;;;;;5.75;2.75;;;28.10;52.20;;;;;;5013181;28;20083;-86
2021/08/05 10:47:11;;;;;;;5.82;2.60;;;28.40;52.50;;;;;;4996629;28;20030;-87
2021/08/05 10:49:38;;;;;;;5.90;2.80;;;28.70;52.90;;;;;;5014480;28;20022;-87
2021/08/05 10:52:04;;;;;;;5.28;2.58;;;28.50;51.90;;;;;;5014102;28;20064;-87
2021/08/05 10:54:51;;;;;;;4.15;2.40;;;28.80;52.10;;;;;;5014320;28;20033;-94
2021/08/05 10:57:24;;;;;;;6.50;2.67;;;29.60;53.50;;;;;;5015682;28;20029;-91
2021/08/05 11:00:14;;;;;;;4.72;2.70;;;30.50;52.40;;;;;;5019606;28;20037;-83
2021/08/05 11:02:52;;;;;;;5.93;2.55;;;31.30;51.20;;;;;;5022842;28;20065;-83
2021/08/05 11:05:23;;;;;;;6.47;2.72;;;31.50;50.60;;;;;;5021992;28;20437;-83
2021/08/05 11:08:11;;;;;;;4.18;2.50;;;31.70;51.00;;;;;;5015110;28;20026;-83
2021/08/05 11:10:40;;;;;;;5.25;2.35;;;31.30;48.60;;;;;;4993852;28;20034;-84
2021/08/05 11:13:09;;;;;;;4.70;2.47;;;29.40;46.10;;;;;;4994392;28;20042;-83
2021/08/05 11:15:34;;;;;;;4.65;2.28;;;30.40;48.30;;;;;;4994480;28;20105;-89
2021/08/05 11:18:18;;;;;;;4.32;2.42;;;30.00;47.90;;;;;;4993837;28;20113;-89
2021/08/05 11:21:06;;;;;;;4.97;2.33;;;29.80;47.40;;;;;;4992873;28;20038;-83
2021/08/05 11:23:35;;;;;;;5.13;2.50;;;29.30;47.30;;;;;;5006008;28;20429;-83
2021/08/05 11:26:04;;;;;;;3.75;2.40;;;28.90;47.30;;;;;;5012818;28;20033;-83
2021/08/05 11:28:49;;;;;;;4.82;2.70;;;28.70;47.30;;;;;;5013683;28;20474;-83
2021/08/05 11:31:32;;;;;;;6.00;2.58;;;28.70;47.50;;;;;;5012941;28;20022;-83
2021/08/05 11:33:59;;;;;;;4.45;2.50;;;29.40;48.00;;;;;;5012120;28;20577;-83
2021/08/05 11:36:33;;;;;;;5.38;2.80;;;29.60;48.30;;;;;;5013853;28;20061;-84
2021/08/05 11:39:16;;;;;;;4.50;2.42;;;29.40;48.50;;;;;;5012843;28;20030;-84
2021/08/05 11:41:58;;;;;;;5.15;2.60;;;29.40;47.50;;;;;;5012882;28;20092;-85
2021/08/05 11:44:41;;;;;;;5.43;2.47;;;29.50;47.20;;;;;;5036592;28;20036;-85
2021/08/05 11:47:11;;;;;;;3.60;2.30;;;29.80;46.80;;;;;;5025035;28;20022;-84
2021/08/05 11:49:45;;;;;;;4.68;2.40;;;30.60;47.30;;;;;;5013515;28;20030;-85
2021/08/05 11:52:23;;;;;;;3.67;2.30;;;30.70;47.20;;;;;;5012322;28;20413;-85
2021/08/05 11:55:15;;;;;;;4.65;2.40;;;31.30;46.70;;;;;;5012098;28;20080;-83
2021/08/05 11:58:02;;;;;;;4.50;2.13;;;32.40;45.00;;;;;;5011964;28;20034;-83
2021/08/05 12:00:35;;;;;;;4.80;2.45;;;32.50;44.60;;;;;;5011772;28;20049;-84
2021/08/05 12:03:09;;;;;;;4.03;2.20;;;33.00;42.80;;;;;;5012019;28;20037;-85
2021/08/05 12:05:37;;;;;;;4.47;2.20;;;33.20;42.20;;;;;;5012140;28;20061;-84
2021/08/05 12:08:04;;;;;;;4.97;2.63;;;33.20;41.50;;;;;;5013326;28;20077;-84
2021/08/05 12:10:32;;;;;;;5.53;2.40;;;32.90;40.20;;;;;;4995834;28;20034;-85
2021/08/05 12:13:06;;;;;;;4.97;2.50;;;33.20;42.10;;;;;;5012900;28;20509;-83
2021/08/05 12:15:33;;;;;;;5.50;2.47;;;34.20;42.90;;;;;;5013115;28;20542;-82
2021/08/05 12:18:15;;;;;;;5.90;2.30;;;35.30;43.00;;;;;;5012177;28;20041;-83
2021/08/05 12:20:45;;;;;;;3.45;2.10;;;36.50;42.50;;;;;;5012129;28;20030;-84
2021/08/05 12:23:17;;;;;;;4.18;2.05;;;37.30;37.90;;;;;;5016649;28;20423;-83
2021/08/05 12:26:03;;;;;;;3.70;2.00;;;37.60;37.80;;;;;;5016825;28;20036;-85
2021/08/05 12:28:41;;;;;;;3.42;2.10;;;38.00;37.30;;;;;;5015549;28;20045;-85
2021/08/05 12:31:10;;;;;;;2.78;2.00;;;38.70;38.00;;;;;;5016802;28;20129;-84
2021/08/05 12:33:41;;;;;;;2.55;1.90;;;39.60;36.10;;;;;;5016647;28;20043;-84
2021/08/05 12:36:16;;;;;;;4.97;2.15;;;40.20;35.20;;;;;;5016246;28;20025;-86
2021/08/05 12:38:47;;;;;;;2.33;1.83;;;40.20;33.10;;;;;;5015419;28;20044;-85
2021/08/05 12:41:25;;;;;;;1.90;1.70;;;39.80;30.40;;;;;;5015324;28;20072;-85
2021/08/05 12:43:52;;;;;;;2.78;2.00;;;38.70;30.80;;;;;;5013092;28;20025;-86
2021/08/05 12:46:19;;;;;;;3.28;2.10;;;38.30;33.30;;;;;;5016472;28;20026;-85
2021/08/05 12:48:51;;;;;;;4.25;2.17;;;39.60;35.40;;;;;;5015244;28;20057;-85
2021/08/05 12:51:20;;;;;;;2.40;1.98;;;41.30;34.90;;;;;;5015489;28;20492;-90
2021/08/05 12:53:46;;;;;;;2.97;2.10;;;42.90;33.80;;;;;;5014972;28;20058;-86